sensor_id;sensor_type;location;lat;lon;timestamp;pressure;altitude;pressure_sealevel;temperature;humidity
37852;BME280;23691;52.486;4.650;2022-11-24T00:01:17;100066.03;;;9.07;89.33
37852;BME280;23691;52.486;4.650;2022-11-24T00:03:44;100071.53;;;9.06;89.12
37852;BME280;23691;52.486;4.650;2022-11-24T00:06:14;100059.88;;;9.07;89.03
37852;BME280;23691;52.486;4.650;2022-11-24T00:08:42;100068.72;;;9.07;88.92
37852;BME280;23691;52.486;4.650;2022-11-24T00:11:11;100074.03;;;9.07;88.78
37852;BME280;23691;52.486;4.650;2022-11-24T00:13:37;100071.03;;;9.10;88.58
37852;BME280;23691;52.486;4.650;2022-11-24T00:16:11;100078.69;;;9.13;88.32
37852;BME280;23691;52.486;4.650;2022-11-24T00:18:38;100063.31;;;9.15;88.40
37852;BME280;23691;52.486;4.650;2022-11-24T00:21:04;100062.34;;;9.16;88.44
37852;BME280;23691;52.486;4.650;2022-11-24T00:23:29;100066.50;;;9.19;88.09
37852;BME280;23691;52.486;4.650;2022-11-24T00:26:05;100054.13;;;9.18;88.44
37852;BME280;23691;52.486;4.650;2022-11-24T00:28:32;100067.66;;;9.16;88.16
37852;BME280;23691;52.486;4.650;2022-11-24T00:30:58;100065.00;;;9.16;88.23
37852;BME280;23691;52.486;4.650;2022-11-24T00:33:24;100078.16;;;9.18;88.08
37852;BME280;23691;52.486;4.650;2022-11-24T00:35:59;100069.31;;;9.17;87.92
37852;BME280;23691;52.486;4.650;2022-11-24T00:38:25;100076.34;;;9.18;88.30
37852;BME280;23691;52.486;4.650;2022-11-24T00:40:51;100096.00;;;9.17;87.98
37852;BME280;23691;52.486;4.650;2022-11-24T00:43:17;100096.84;;;9.18;88.21
37852;BME280;23691;52.486;4.650;2022-11-24T00:45:42;100088.00;;;9.17;87.97
37852;BME280;23691;52.486;4.650;2022-11-24T00:48:08;100098.69;;;9.17;88.00
37852;BME280;23691;52.486;4.650;2022-11-24T00:50:34;100105.88;;;9.17;87.99
37852;BME280;23691;52.486;4.650;2022-11-24T00:53:00;100099.19;;;9.13;87.94
37852;BME280;23691;52.486;4.650;2022-11-24T00:55:25;100096.72;;;9.11;87.94
37852;BME280;23691;52.486;4.650;2022-11-24T00:57:51;100103.72;;;9.12;87.97
37852;BME280;23691;52.486;4.650;2022-11-24T01:00:17;100103.72;;;9.12;88.03
37852;BME280;23691;52.486;4.650;2022-11-24T01:02:42;100100.38;;;9.10;87.86
37852;BME280;23691;52.486;4.650;2022-11-24T01:05:08;100103.03;;;9.10;87.84
37852;BME280;23691;52.486;4.650;2022-11-24T01:07:34;100104.06;;;9.09;88.02
37852;BME280;23691;52.486;4.650;2022-11-24T01:09:59;100108.06;;;9.05;87.86
37852;BME280;23691;52.486;4.650;2022-11-24T01:12:25;100110.94;;;9.03;87.82
37852;BME280;23691;52.486;4.650;2022-11-24T01:14:50;100108.44;;;9.02;87.95
37852;BME280;23691;52.486;4.650;2022-11-24T01:17:16;100119.91;;;9.02;87.78
37852;BME280;23691;52.486;4.650;2022-11-24T01:19:41;100125.25;;;9.02;87.85
37852;BME280;23691;52.486;4.650;2022-11-24T01:22:07;100131.41;;;9.03;88.07
37852;BME280;23691;52.486;4.650;2022-11-24T01:24:32;100134.28;;;9.01;87.61
37852;BME280;23691;52.486;4.650;2022-11-24T01:26:58;100134.28;;;9.01;87.91
37852;BME280;23691;52.486;4.650;2022-11-24T01:29:23;100135.25;;;9.00;87.73
37852;BME280;23691;52.486;4.650;2022-11-24T01:31:50;100140.78;;;8.99;87.81
37852;BME280;23691;52.486;4.650;2022-11-24T01:34:16;100139.97;;;8.98;87.68
37852;BME280;23691;52.486;4.650;2022-11-24T01:36:41;100138.28;;;8.97;87.86
37852;BME280;23691;52.486;4.650;2022-11-24T01:39:07;100155.13;;;8.98;87.81
37852;BME280;23691;52.486;4.650;2022-11-24T01:41:32;100166.66;;;8.98;87.68
37852;BME280;23691;52.486;4.650;2022-11-24T01:43:58;100153.47;;;8.97;87.88
37852;BME280;23691;52.486;4.650;2022-11-24T01:46:37;100157.78;;;8.98;87.91
37852;BME280;23691;52.486;4.650;2022-11-24T01:51:35;100158.97;;;8.95;87.70
37852;BME280;23691;52.486;4.650;2022-11-24T01:54:13;100164.50;;;8.94;87.90
37852;BME280;23691;52.486;4.650;2022-11-24T01:56:41;100164.66;;;8.92;87.81
37852;BME280;23691;52.486;4.650;2022-11-24T01:59:12;100159.16;;;8.94;87.88
37852;BME280;23691;52.486;4.650;2022-11-24T02:01:38;100153.81;;;8.94;87.88
37852;BME280;23691;52.486;4.650;2022-11-24T02:04:08;100159.16;;;8.94;87.97
37852;BME280;23691;52.486;4.650;2022-11-24T02:06:35;100165.66;;;8.91;87.97
37852;BME280;23691;52.486;4.650;2022-11-24T02:10:10;100165.47;;;8.93;88.01
37852;BME280;23691;52.486;4.650;2022-11-24T02:12:05;100165.66;;;8.91;87.85
37852;BME280;23691;52.486;4.650;2022-11-24T02:14:33;100174.50;;;8.92;88.30
37852;BME280;23691;52.486;4.650;2022-11-24T02:17:00;100169.31;;;8.90;88.11
37852;BME280;23691;52.486;4.650;2022-11-24T02:19:48;100175.47;;;8.91;88.19
37852;BME280;23691;52.486;4.650;2022-11-24T02:22:53;100191.47;;;8.91;88.51
37852;BME280;23691;52.486;4.650;2022-11-24T02:25:34;100196.19;;;8.89;88.55
37852;BME280;23691;52.486;4.650;2022-11-24T02:28:04;100208.66;;;8.88;88.51
37852;BME280;23691;52.486;4.650;2022-11-24T02:30:31;100207.69;;;8.89;88.60
37852;BME280;23691;52.486;4.650;2022-11-24T02:32:57;100208.34;;;8.91;88.48
37852;BME280;23691;52.486;4.650;2022-11-24T02:35:25;100215.34;;;8.92;88.18
37852;BME280;23691;52.486;4.650;2022-11-24T02:37:51;100215.34;;;8.92;88.38
37852;BME280;23691;52.486;4.650;2022-11-24T02:40:21;100224.34;;;8.91;88.31
37852;BME280;23691;52.486;4.650;2022-11-24T02:42:56;100218.34;;;8.89;88.54
37852;BME280;23691;52.486;4.650;2022-11-24T02:45:23;100226.16;;;8.91;88.47
37852;BME280;23691;52.486;4.650;2022-11-24T02:47:50;100229.50;;;8.93;88.42
37852;BME280;23691;52.486;4.650;2022-11-24T02:50:15;100219.66;;;8.93;88.47
37852;BME280;23691;52.486;4.650;2022-11-24T02:52:41;100218.50;;;8.96;88.14
37852;BME280;23691;52.486;4.650;2022-11-24T02:55:06;100224.69;;;8.96;88.30
37852;BME280;23691;52.486;4.650;2022-11-24T02:57:32;100215.66;;;8.97;87.71
37852;BME280;23691;52.486;4.650;2022-11-24T02:59:57;100212.31;;;8.95;87.83
37852;BME280;23691;52.486;4.650;2022-11-24T03:02:23;100213.34;;;8.94;87.68
37852;BME280;23691;52.486;4.650;2022-11-24T03:04:48;100205.50;;;8.93;87.44
37852;BME280;23691;52.486;4.650;2022-11-24T03:07:14;100212.00;;;8.90;87.31
37852;BME280;23691;52.486;4.650;2022-11-24T03:09:39;100205.84;;;8.90;87.26
37852;BME280;23691;52.486;4.650;2022-11-24T03:12:05;100217.69;;;8.87;86.92
37852;BME280;23691;52.486;4.650;2022-11-24T03:14:30;100229.53;;;8.85;86.89
37852;BME280;23691;52.486;4.650;2022-11-24T03:16:56;100239.38;;;8.84;86.33
37852;BME280;23691;52.486;4.650;2022-11-24T03:19:21;100236.84;;;8.82;86.39
37852;BME280;23691;52.486;4.650;2022-11-24T03:21:47;100239.84;;;8.79;86.03
37852;BME280;23691;52.486;4.650;2022-11-24T03:24:12;100244.19;;;8.80;86.02
37852;BME280;23691;52.486;4.650;2022-11-24T03:26:38;100258.34;;;8.81;85.69
37852;BME280;23691;52.486;4.650;2022-11-24T03:29:03;100261.19;;;8.79;85.60
37852;BME280;23691;52.486;4.650;2022-11-24T03:31:30;100258.34;;;8.81;85.30
37852;BME280;23691;52.486;4.650;2022-11-24T03:33:56;100270.03;;;8.80;85.00
37852;BME280;23691;52.486;4.650;2022-11-24T03:36:21;100268.84;;;8.82;85.03
37852;BME280;23691;52.486;4.650;2022-11-24T03:38:46;100267.69;;;8.85;84.85
37852;BME280;23691;52.486;4.650;2022-11-24T03:41:12;100267.53;;;8.87;84.65
37852;BME280;23691;52.486;4.650;2022-11-24T03:43:37;100273.69;;;8.87;84.67
37852;BME280;23691;52.486;4.650;2022-11-24T03:46:03;100285.03;;;8.89;84.49
37852;BME280;23691;52.486;4.650;2022-11-24T03:48:28;100275.69;;;8.93;84.34
37852;BME280;23691;52.486;4.650;2022-11-24T03:50:58;100289.38;;;8.98;84.27
37852;BME280;23691;52.486;4.650;2022-11-24T03:53:25;100280.03;;;9.02;84.20
37852;BME280;23691;52.486;4.650;2022-11-24T03:55:51;100290.19;;;9.07;84.24
37852;BME280;23691;52.486;4.650;2022-11-24T03:58:17;100289.84;;;9.10;83.96
37852;BME280;23691;52.486;4.650;2022-11-24T04:00:44;100295.03;;;9.12;84.60
37852;BME280;23691;52.486;4.650;2022-11-24T04:03:10;100299.69;;;9.18;84.92
37852;BME280;23691;52.486;4.650;2022-11-24T04:05:35;100302.50;;;9.24;85.28
37852;BME280;23691;52.486;4.650;2022-11-24T04:08:02;100300.66;;;9.25;85.66
37852;BME280;23691;52.486;4.650;2022-11-24T04:10:31;100304.84;;;9.28;85.82
37852;BME280;23691;52.486;4.650;2022-11-24T04:12:57;100324.19;;;9.30;86.08
37852;BME280;23691;52.486;4.650;2022-11-24T04:15:22;100309.69;;;9.32;86.36
37852;BME280;23691;52.486;4.650;2022-11-24T04:17:49;100314.03;;;9.33;86.54
37852;BME280;23691;52.486;4.650;2022-11-24T04:20:15;100310.34;;;9.34;86.62
37852;BME280;23691;52.486;4.650;2022-11-24T04:22:41;100325.38;;;9.35;86.92
37852;BME280;23691;52.486;4.650;2022-11-24T04:25:08;100330.72;;;9.35;86.90
37852;BME280;23691;52.486;4.650;2022-11-24T04:27:35;100331.69;;;9.34;87.09
37852;BME280;23691;52.486;4.650;2022-11-24T04:30:02;100324.72;;;9.33;87.55
37852;BME280;23691;52.486;4.650;2022-11-24T04:32:27;100336.06;;;9.35;87.56
37852;BME280;23691;52.486;4.650;2022-11-24T04:34:53;100343.88;;;9.37;87.48
37852;BME280;23691;52.486;4.650;2022-11-24T04:37:18;100346.53;;;9.37;87.33
37852;BME280;23691;52.486;4.650;2022-11-24T04:39:45;100354.56;;;9.37;87.07
37852;BME280;23691;52.486;4.650;2022-11-24T04:42:11;100360.91;;;9.36;87.26
37852;BME280;23691;52.486;4.650;2022-11-24T04:44:36;100363.41;;;9.37;86.98
37852;BME280;23691;52.486;4.650;2022-11-24T04:47:02;100366.41;;;9.34;86.93
37852;BME280;23691;52.486;4.650;2022-11-24T04:49:28;100365.75;;;9.32;86.97
37852;BME280;23691;52.486;4.650;2022-11-24T04:51:53;100367.72;;;9.30;86.56
37852;BME280;23691;52.486;4.650;2022-11-24T04:54:19;100369.75;;;9.28;86.71
37852;BME280;23691;52.486;4.650;2022-11-24T04:56:49;100376.09;;;9.27;86.75
37852;BME280;23691;52.486;4.650;2022-11-24T04:59:15;100375.09;;;9.28;86.78
37852;BME280;23691;52.486;4.650;2022-11-24T05:01:41;100375.94;;;9.29;86.77
37852;BME280;23691;52.486;4.650;2022-11-24T05:04:09;100376.75;;;9.29;86.79
37852;BME280;23691;52.486;4.650;2022-11-24T05:06:35;100383.75;;;9.30;86.79
37852;BME280;23691;52.486;4.650;2022-11-24T05:09:01;100387.28;;;9.31;86.95
37852;BME280;23691;52.486;4.650;2022-11-24T05:11:26;100384.75;;;9.29;86.98
37852;BME280;23691;52.486;4.650;2022-11-24T05:13:52;100390.25;;;9.28;87.01
37852;BME280;23691;52.486;4.650;2022-11-24T05:16:17;100395.44;;;9.29;87.02
37852;BME280;23691;52.486;4.650;2022-11-24T05:18:52;100406.13;;;9.29;87.57
37852;BME280;23691;52.486;4.650;2022-11-24T05:21:17;100414.13;;;9.29;87.29
37852;BME280;23691;52.486;4.650;2022-11-24T05:23:43;100409.81;;;9.28;87.43
37852;BME280;23691;52.486;4.650;2022-11-24T05:26:08;100422.16;;;9.29;87.44
37852;BME280;23691;52.486;4.650;2022-11-24T05:28:34;100422.81;;;9.31;87.48
37852;BME280;23691;52.486;4.650;2022-11-24T05:31:01;100443.34;;;9.31;87.86
37852;BME280;23691;52.486;4.650;2022-11-24T05:33:26;100447.81;;;9.30;87.79
37852;BME280;23691;52.486;4.650;2022-11-24T05:35:53;100448.69;;;9.31;88.06
37852;BME280;23691;52.486;4.650;2022-11-24T05:38:19;100454.03;;;9.31;88.00
37852;BME280;23691;52.486;4.650;2022-11-24T05:40:46;100465.34;;;9.33;88.38
37852;BME280;23691;52.486;4.650;2022-11-24T05:43:15;100477.56;;;9.35;88.63
37852;BME280;23691;52.486;4.650;2022-11-24T05:45:41;100481.22;;;9.34;88.70
37852;BME280;23691;52.486;4.650;2022-11-24T05:48:11;100487.38;;;9.35;88.94
37852;BME280;23691;52.486;4.650;2022-11-24T05:50:37;100491.56;;;9.37;88.93
37852;BME280;23691;52.486;4.650;2022-11-24T05:53:08;100479.69;;;9.40;89.05
37852;BME280;23691;52.486;4.650;2022-11-24T05:55:34;100482.91;;;9.43;89.05
37852;BME280;23691;52.486;4.650;2022-11-24T05:58:04;100475.38;;;9.47;88.93
37852;BME280;23691;52.486;4.650;2022-11-24T06:00:30;100485.06;;;9.48;88.69
37852;BME280;23691;52.486;4.650;2022-11-24T06:02:57;100494.75;;;9.49;88.41
37852;BME280;23691;52.486;4.650;2022-11-24T06:05:23;100488.41;;;9.50;88.43
37852;BME280;23691;52.486;4.650;2022-11-24T06:07:48;100498.41;;;9.48;88.41
37852;BME280;23691;52.486;4.650;2022-11-24T06:10:16;100493.91;;;9.49;88.36
37852;BME280;23691;52.486;4.650;2022-11-24T06:12:41;100497.91;;;9.44;88.38
37852;BME280;23691;52.486;4.650;2022-11-24T06:15:07;100490.22;;;9.41;88.27
37852;BME280;23691;52.486;4.650;2022-11-24T06:17:33;100499.91;;;9.42;88.32
37852;BME280;23691;52.486;4.650;2022-11-24T06:19:59;100506.25;;;9.41;88.45
37852;BME280;23691;52.486;4.650;2022-11-24T06:22:24;100508.78;;;9.43;88.63
37852;BME280;23691;52.486;4.650;2022-11-24T06:24:50;100511.44;;;9.43;88.73
37852;BME280;23691;52.486;4.650;2022-11-24T06:27:15;100515.09;;;9.42;88.84
37852;BME280;23691;52.486;4.650;2022-11-24T06:29:41;100523.28;;;9.40;89.16
37852;BME280;23691;52.486;4.650;2022-11-24T06:32:07;100528.09;;;9.37;89.19
37852;BME280;23691;52.486;4.650;2022-11-24T06:34:33;100535.28;;;9.36;89.34
37852;BME280;23691;52.486;4.650;2022-11-24T06:36:59;100542.28;;;9.37;89.46
37852;BME280;23691;52.486;4.650;2022-11-24T06:39:24;100540.97;;;9.33;89.57
37852;BME280;23691;52.486;4.650;2022-11-24T06:41:50;100542.94;;;9.31;89.64
37852;BME280;23691;52.486;4.650;2022-11-24T06:44:16;100552.94;;;9.29;89.85
37852;BME280;23691;52.486;4.650;2022-11-24T06:46:43;100561.78;;;9.30;89.78
37852;BME280;23691;52.486;4.650;2022-11-24T06:49:08;100560.28;;;9.27;89.80
37852;BME280;23691;52.486;4.650;2022-11-24T06:51:34;100572.66;;;9.28;90.03
37852;BME280;23691;52.486;4.650;2022-11-24T06:53:59;100563.44;;;9.22;89.77
37852;BME280;23691;52.486;4.650;2022-11-24T06:56:26;100578.63;;;9.22;89.82
37852;BME280;23691;52.486;4.650;2022-11-24T06:58:52;100584.28;;;9.19;90.10
37852;BME280;23691;52.486;4.650;2022-11-24T07:01:23;100584.28;;;9.19;89.97
37852;BME280;23691;52.486;4.650;2022-11-24T07:03:50;100596.28;;;9.15;89.87
37852;BME280;23691;52.486;4.650;2022-11-24T07:06:17;100591.13;;;9.13;89.69
37852;BME280;23691;52.486;4.650;2022-11-24T07:08:43;100602.97;;;9.11;89.81
37852;BME280;23691;52.486;4.650;2022-11-24T07:11:11;100615.63;;;9.09;89.96
37852;BME280;23691;52.486;4.650;2022-11-24T07:13:40;100620.44;;;9.05;89.88
37852;BME280;23691;52.486;4.650;2022-11-24T07:16:19;100613.44;;;9.04;89.93
37852;BME280;23691;52.486;4.650;2022-11-24T07:18:46;100615.56;;;9.00;89.83
37852;BME280;23691;52.486;4.650;2022-11-24T07:21:12;100620.25;;;8.98;89.89
37852;BME280;23691;52.486;4.650;2022-11-24T07:23:38;100630.75;;;9.00;89.72
37852;BME280;23691;52.486;4.650;2022-11-24T07:26:05;100639.22;;;8.95;89.71
37852;BME280;23691;52.486;4.650;2022-11-24T07:28:31;100643.03;;;8.93;89.76
37852;BME280;23691;52.486;4.650;2022-11-24T07:30:57;100650.38;;;8.91;89.50
37852;BME280;23691;52.486;4.650;2022-11-24T07:33:23;100658.09;;;8.94;89.93
37852;BME280;23691;52.486;4.650;2022-11-24T07:35:51;100657.91;;;8.95;89.79
37852;BME280;23691;52.486;4.650;2022-11-24T07:38:17;100667.28;;;8.99;89.60
37852;BME280;23691;52.486;4.650;2022-11-24T07:40:42;100666.25;;;9.00;89.31
37852;BME280;23691;52.486;4.650;2022-11-24T07:43:08;100662.63;;;9.01;89.31
37852;BME280;23691;52.486;4.650;2022-11-24T07:45:33;100664.47;;;9.01;89.31
37852;BME280;23691;52.486;4.650;2022-11-24T07:48:10;100671.59;;;9.00;89.38
37852;BME280;23691;52.486;4.650;2022-11-24T07:50:36;100680.63;;;8.99;89.42
37852;BME280;23691;52.486;4.650;2022-11-24T07:53:04;100679.25;;;8.95;89.30
37852;BME280;23691;52.486;4.650;2022-11-24T07:55:29;100686.56;;;8.93;89.22
37852;BME280;23691;52.486;4.650;2022-11-24T07:57:58;100699.25;;;8.91;89.45
37852;BME280;23691;52.486;4.650;2022-11-24T08:00:23;100692.91;;;8.92;89.36
37852;BME280;23691;52.486;4.650;2022-11-24T08:02:49;100693.97;;;8.99;89.35
37852;BME280;23691;52.486;4.650;2022-11-24T08:05:14;100704.16;;;9.04;89.16
37852;BME280;23691;52.486;4.650;2022-11-24T08:07:40;100706.00;;;9.03;89.03
37852;BME280;23691;52.486;4.650;2022-11-24T08:10:05;100717.03;;;9.09;88.93
37852;BME280;23691;52.486;4.650;2022-11-24T08:12:31;100709.03;;;9.09;88.71
37852;BME280;23691;52.486;4.650;2022-11-24T08:14:58;100711.69;;;9.09;88.92
37852;BME280;23691;52.486;4.650;2022-11-24T08:17:23;100726.69;;;9.10;88.47
37852;BME280;23691;52.486;4.650;2022-11-24T08:19:49;100729.59;;;9.16;88.65
37852;BME280;23691;52.486;4.650;2022-11-24T08:22:15;100735.28;;;9.21;88.62
37852;BME280;23691;52.486;4.650;2022-11-24T08:24:40;100737.50;;;9.26;88.65
37852;BME280;23691;52.486;4.650;2022-11-24T08:27:11;100737.63;;;9.24;88.31
37852;BME280;23691;52.486;4.650;2022-11-24T08:29:37;100739.97;;;9.28;88.74
37852;BME280;23691;52.486;4.650;2022-11-24T08:32:03;100745.03;;;9.31;88.37
37852;BME280;23691;52.486;4.650;2022-11-24T08:34:28;100749.03;;;9.35;88.15
37852;BME280;23691;52.486;4.650;2022-11-24T08:36:54;100748.09;;;9.44;87.99
37852;BME280;23691;52.486;4.650;2022-11-24T08:39:19;100750.28;;;9.49;87.78
37852;BME280;23691;52.486;4.650;2022-11-24T08:41:45;100749.94;;;9.43;87.67
37852;BME280;23691;52.486;4.650;2022-11-24T08:44:10;100760.59;;;9.43;88.09
37852;BME280;23691;52.486;4.650;2022-11-24T08:46:39;100757.41;;;9.40;88.36
37852;BME280;23691;52.486;4.650;2022-11-24T08:49:04;100760.94;;;9.40;88.08
37852;BME280;23691;52.486;4.650;2022-11-24T08:51:31;100760.75;;;9.42;88.16
37852;BME280;23691;52.486;4.650;2022-11-24T08:53:59;100764.44;;;9.41;88.01
37852;BME280;23691;52.486;4.650;2022-11-24T08:56:29;100767.44;;;9.38;87.98
37852;BME280;23691;52.486;4.650;2022-11-24T08:58:57;100772.78;;;9.38;88.24
37852;BME280;23691;52.486;4.650;2022-11-24T09:01:23;100781.13;;;9.43;87.97
37852;BME280;23691;52.486;4.650;2022-11-24T09:03:49;100783.34;;;9.48;87.76
37852;BME280;23691;52.486;4.650;2022-11-24T09:06:16;100792.19;;;9.48;87.52
37852;BME280;23691;52.486;4.650;2022-11-24T09:08:42;100782.22;;;9.58;87.65
37852;BME280;23691;52.486;4.650;2022-11-24T09:11:12;100790.47;;;9.73;87.66
37852;BME280;23691;52.486;4.650;2022-11-24T09:13:38;100797.81;;;9.79;87.66
37852;BME280;23691;52.486;4.650;2022-11-24T09:16:05;100796.66;;;9.82;87.79
37852;BME280;23691;52.486;4.650;2022-11-24T09:18:31;100797.34;;;9.84;87.76
37852;BME280;23691;52.486;4.650;2022-11-24T09:21:14;100798.56;;;9.89;87.57
37852;BME280;23691;52.486;4.650;2022-11-24T09:23:40;100792.41;;;9.97;87.21
37852;BME280;23691;52.486;4.650;2022-11-24T09:26:10;100802.81;;;10.17;86.84
37852;BME280;23691;52.486;4.650;2022-11-24T09:28:36;100804.34;;;10.27;86.58
37852;BME280;23691;52.486;4.650;2022-11-24T09:31:03;100804.72;;;10.32;86.19
37852;BME280;23691;52.486;4.650;2022-11-24T09:33:30;100804.22;;;10.37;85.67
37852;BME280;23691;52.486;4.650;2022-11-24T09:35:57;100806.09;;;10.45;85.29
37852;BME280;23691;52.486;4.650;2022-11-24T09:38:23;100813.47;;;10.51;84.85
37852;BME280;23691;52.486;4.650;2022-11-24T09:40:49;100811.44;;;10.53;84.14
37852;BME280;23691;52.486;4.650;2022-11-24T09:46:31;100824.16;;;10.67;83.41
37852;BME280;23691;52.486;4.650;2022-11-24T09:49:00;100832.22;;;10.76;83.18
37852;BME280;23691;52.486;4.650;2022-11-24T09:51:30;100834.22;;;10.90;82.78
37852;BME280;23691;52.486;4.650;2022-11-24T09:54:04;100829.19;;;10.95;82.55
37852;BME280;23691;52.486;4.650;2022-11-24T09:56:34;100838.91;;;10.96;82.50
37852;BME280;23691;52.486;4.650;2022-11-24T09:59:21;100847.28;;;11.01;82.45
37852;BME280;23691;52.486;4.650;2022-11-24T10:01:49;100850.44;;;11.05;82.10
37852;BME280;23691;52.486;4.650;2022-11-24T10:04:21;100846.59;;;11.07;82.11
37852;BME280;23691;52.486;4.650;2022-11-24T10:25:59;100849.28;;;11.40;81.07
37852;BME280;23691;52.486;4.650;2022-11-24T10:28:38;100856.81;;;11.45;81.28
37852;BME280;23691;52.486;4.650;2022-11-24T10:31:28;100860.78;;;11.49;80.98
37852;BME280;23691;52.486;4.650;2022-11-24T10:33:57;100869.66;;;11.49;80.70
37852;BME280;23691;52.486;4.650;2022-11-24T10:36:36;100875.03;;;11.49;80.62
37852;BME280;23691;52.486;4.650;2022-11-24T10:44:30;100870.31;;;11.68;80.28
37852;BME280;23691;52.486;4.650;2022-11-24T10:46:55;100865.59;;;11.78;80.21
37852;BME280;23691;52.486;4.650;2022-11-24T10:49:25;100873.97;;;11.83;80.13
37852;BME280;23691;52.486;4.650;2022-11-24T10:54:20;100881.66;;;11.86;80.29
37852;BME280;23691;52.486;4.650;2022-11-24T10:56:49;100871.78;;;11.78;80.25
37852;BME280;23691;52.486;4.650;2022-11-24T10:59:36;100880.00;;;11.77;80.26
37852;BME280;23691;52.486;4.650;2022-11-24T11:02:29;100886.06;;;11.79;80.02
37852;BME280;23691;52.486;4.650;2022-11-24T11:04:54;100895.25;;;11.85;80.07
37852;BME280;23691;52.486;4.650;2022-11-24T11:07:23;100892.38;;;11.86;80.09
37852;BME280;23691;52.486;4.650;2022-11-24T11:09:49;100896.53;;;12.05;79.91
37852;BME280;23691;52.486;4.650;2022-11-24T11:12:23;100902.69;;;12.22;79.75
37852;BME280;23691;52.486;4.650;2022-11-24T11:14:51;100904.06;;;12.10;80.03
37852;BME280;23691;52.486;4.650;2022-11-24T11:17:33;100905.78;;;12.02;80.41
37852;BME280;23691;52.486;4.650;2022-11-24T11:20:16;100896.56;;;11.97;80.70
37852;BME280;23691;52.486;4.650;2022-11-24T11:22:44;100903.63;;;11.90;80.88
37852;BME280;23691;52.486;4.650;2022-11-24T11:25:20;100897.09;;;11.84;80.84
37852;BME280;23691;52.486;4.650;2022-11-24T11:27:47;100893.38;;;11.93;80.52
37852;BME280;23691;52.486;4.650;2022-11-24T11:30:24;100890.31;;;12.13;80.05
37852;BME280;23691;52.486;4.650;2022-11-24T11:32:54;100896.44;;;12.30;79.74
37852;BME280;23691;52.486;4.650;2022-11-24T11:35:21;100900.16;;;12.29;79.63
37852;BME280;23691;52.486;4.650;2022-11-24T11:37:47;100894.13;;;12.27;79.82
37852;BME280;23691;52.486;4.650;2022-11-24T11:40:16;100901.34;;;12.26;79.54
37852;BME280;23691;52.486;4.650;2022-11-24T11:42:52;100900.16;;;12.20;79.39
37852;BME280;23691;52.486;4.650;2022-11-24T11:45:23;100898.66;;;12.18;79.21
37852;BME280;23691;52.486;4.650;2022-11-24T11:50:42;100893.81;;;12.21;79.12
37852;BME280;23691;52.486;4.650;2022-11-24T11:53:36;100894.31;;;12.17;79.05
37852;BME280;23691;52.486;4.650;2022-11-24T11:56:25;100899.19;;;12.13;78.99
37852;BME280;23691;52.486;4.650;2022-11-24T11:58:58;100901.56;;;12.08;78.58
37852;BME280;23691;52.486;4.650;2022-11-24T12:10:16;100909.16;;;11.96;77.96
37852;BME280;23691;52.486;4.650;2022-11-24T12:15:49;100925.56;;;12.01;78.04
37852;BME280;23691;52.486;4.650;2022-11-24T12:34:47;100934.94;;;11.97;77.40
37852;BME280;23691;52.486;4.650;2022-11-24T12:40:27;100931.91;;;12.00;77.38
37852;BME280;23691;52.486;4.650;2022-11-24T12:43:21;100926.56;;;12.00;77.46
37852;BME280;23691;52.486;4.650;2022-11-24T12:46:22;100939.13;;;12.00;77.44
37852;BME280;23691;52.486;4.650;2022-11-24T12:51:47;100939.63;;;11.95;77.52
37852;BME280;23691;52.486;4.650;2022-11-24T12:54:17;100935.28;;;11.94;77.66
37852;BME280;23691;52.486;4.650;2022-11-24T12:56:52;100941.50;;;11.95;77.48
37852;BME280;23691;52.486;4.650;2022-11-24T12:59:42;100946.03;;;11.94;77.56
37852;BME280;23691;52.486;4.650;2022-11-24T13:04:50;100930.91;;;11.85;77.33
37852;BME280;23691;52.486;4.650;2022-11-24T13:07:43;100934.13;;;11.89;77.38
37852;BME280;23691;52.486;4.650;2022-11-24T13:15:21;100930.94;;;11.93;77.08
37852;BME280;23691;52.486;4.650;2022-11-24T13:17:46;100936.97;;;11.95;77.19
37852;BME280;23691;52.486;4.650;2022-11-24T13:22:38;100942.50;;;11.94;76.94
37852;BME280;23691;52.486;4.650;2022-11-24T13:25:17;100948.03;;;11.92;76.73
37852;BME280;23691;52.486;4.650;2022-11-24T13:27:47;100952.56;;;11.92;76.65
37852;BME280;23691;52.486;4.650;2022-11-24T13:33:30;100937.66;;;11.89;76.69
37852;BME280;23691;52.486;4.650;2022-11-24T13:47:01;100930.44;;;11.65;76.52
37852;BME280;23691;52.486;4.650;2022-11-24T13:49:40;100936.66;;;11.57;76.92
37852;BME280;23691;52.486;4.650;2022-11-24T13:57:37;100926.94;;;11.48;76.87
37852;BME280;23691;52.486;4.650;2022-11-24T14:00:14;100932.66;;;11.45;76.96
37852;BME280;23691;52.486;4.650;2022-11-24T14:02:42;100930.66;;;11.47;77.03
37852;BME280;23691;52.486;4.650;2022-11-24T14:05:16;100934.16;;;11.48;77.01
37852;BME280;23691;52.486;4.650;2022-11-24T14:07:46;100927.63;;;11.50;77.10
37852;BME280;23691;52.486;4.650;2022-11-24T14:10:18;100930.97;;;11.52;77.02
37852;BME280;23691;52.486;4.650;2022-11-24T14:12:44;100927.63;;;11.50;77.12
37852;BME280;23691;52.486;4.650;2022-11-24T14:15:24;100925.44;;;11.46;77.28
37852;BME280;23691;52.486;4.650;2022-11-24T14:17:51;100933.97;;;11.41;77.21
37852;BME280;23691;52.486;4.650;2022-11-24T14:20:25;100935.81;;;11.41;77.38
37852;BME280;23691;52.486;4.650;2022-11-24T14:22:51;100936.31;;;11.36;77.46
37852;BME280;23691;52.486;4.650;2022-11-24T14:25:27;100933.50;;;11.37;77.70
37852;BME280;23691;52.486;4.650;2022-11-24T14:27:54;100920.78;;;11.39;77.57
37852;BME280;23691;52.486;4.650;2022-11-24T14:30:21;100925.47;;;11.37;77.66
37852;BME280;23691;52.486;4.650;2022-11-24T14:32:57;100914.06;;;11.35;77.83
37852;BME280;23691;52.486;4.650;2022-11-24T14:35:32;100908.88;;;11.34;77.88
37852;BME280;23691;52.486;4.650;2022-11-24T14:38:00;100908.19;;;11.32;77.87
37852;BME280;23691;52.486;4.650;2022-11-24T14:45:53;100901.84;;;11.33;77.89
37852;BME280;23691;52.486;4.650;2022-11-24T14:48:24;100898.16;;;11.34;78.04
37852;BME280;23691;52.486;4.650;2022-11-24T14:50:51;100898.66;;;11.37;78.06